Aviation Digital Data Service (ADDS)

Output produced by METARs form (1747 UTC 25 March 2019)
found at http://www.aviationweather.gov/metar/data/
 
Forecast for: KBOI (BOISE , ID, US)
Text: KBOI 251720Z 2518/2618 14015KT P6SM SKC
Forecast period: 1800 to 2100 UTC 25 March 2019
Forecast type: FROM: standard forecast or significant change
Winds: from the SE (140 degrees) at 17 MPH (15 knots; 7.7 m/s)
Visibility: 6 or more miles 10+ km)
Clouds: clear skies
Weather: no significant weather forecast for this period
Text: FM252100 14020G30KT P6SM BKN250
Forecast period: 2100 UTC 25 March 2019 to 0300 UTC 26 March 2019
Forecast type: FROM: standard forecast or significant change
Winds: from the SE (140 degrees) at 23 MPH (20 knots; 10.3 m/s)
gusting to 34 MPH (30 knots; 15.4 m/s)
Visibility: 6 or more miles 10+ km)
Ceiling: 25000 feet AGL
Clouds: broken clouds at 25000 feet AGL
Weather: no significant weather forecast for this period
Text: FM260300 13010KT P6SM OVC080
Forecast period: 0300 to 1800 UTC 26 March 2019
Forecast type: FROM: standard forecast or significant change
Winds: from the SE (130 degrees) at 12 MPH (10 knots; 5.1 m/s)
Visibility: 6 or more miles 10+ km)
Ceiling: 8000 feet AGL
Clouds: overcast cloud deck at 8000 feet AGL
Weather: no significant weather forecast for this period